sensor_id;sensor_type;location;lat;lon;timestamp;temperature;humidity
14122;DHT22;7139;48.114;11.442;2023-06-22T00:02:02;21.90;96.60
14122;DHT22;7139;48.114;11.442;2023-06-22T00:04:28;21.90;96.90
14122;DHT22;7139;48.114;11.442;2023-06-22T00:06:55;21.90;97.00
14122;DHT22;7139;48.114;11.442;2023-06-22T00:09:22;21.90;96.90
14122;DHT22;7139;48.114;11.442;2023-06-22T00:11:49;21.80;96.90
14122;DHT22;7139;48.114;11.442;2023-06-22T00:14:17;21.80;97.00
14122;DHT22;7139;48.114;11.442;2023-06-22T00:16:43;21.80;97.10
14122;DHT22;7139;48.114;11.442;2023-06-22T00:19:14;21.80;97.20
14122;DHT22;7139;48.114;11.442;2023-06-22T00:21:40;21.70;97.30
14122;DHT22;7139;48.114;11.442;2023-06-22T00:24:08;21.70;97.40
14122;DHT22;7139;48.114;11.442;2023-06-22T00:26:34;21.70;97.40
14122;DHT22;7139;48.114;11.442;2023-06-22T00:29:01;21.60;97.50
14122;DHT22;7139;48.114;11.442;2023-06-22T00:31:29;21.60;97.60
14122;DHT22;7139;48.114;11.442;2023-06-22T00:33:56;21.50;97.60
14122;DHT22;7139;48.114;11.442;2023-06-22T00:36:23;21.50;97.70
14122;DHT22;7139;48.114;11.442;2023-06-22T00:38:50;21.50;97.60
14122;DHT22;7139;48.114;11.442;2023-06-22T00:41:17;21.40;97.70
14122;DHT22;7139;48.114;11.442;2023-06-22T00:43:44;21.40;97.80
14122;DHT22;7139;48.114;11.442;2023-06-22T00:46:11;21.40;97.90
14122;DHT22;7139;48.114;11.442;2023-06-22T00:48:40;21.40;98.00
14122;DHT22;7139;48.114;11.442;2023-06-22T00:51:07;21.30;97.90
14122;DHT22;7139;48.114;11.442;2023-06-22T00:53:34;21.30;98.00
14122;DHT22;7139;48.114;11.442;2023-06-22T00:56:02;21.30;98.10
14122;DHT22;7139;48.114;11.442;2023-06-22T00:58:30;21.30;98.20
14122;DHT22;7139;48.114;11.442;2023-06-22T01:00:56;21.20;98.20
14122;DHT22;7139;48.114;11.442;2023-06-22T01:03:23;21.20;98.30
14122;DHT22;7139;48.114;11.442;2023-06-22T01:05:52;21.20;98.40
14122;DHT22;7139;48.114;11.442;2023-06-22T01:08:29;21.10;98.40
14122;DHT22;7139;48.114;11.442;2023-06-22T01:11:03;21.10;98.40
14122;DHT22;7139;48.114;11.442;2023-06-22T01:13:36;21.10;98.40
14122;DHT22;7139;48.114;11.442;2023-06-22T01:16:07;21.10;98.50
14122;DHT22;7139;48.114;11.442;2023-06-22T01:18:41;21.10;98.50
14122;DHT22;7139;48.114;11.442;2023-06-22T01:21:12;21.10;98.60
14122;DHT22;7139;48.114;11.442;2023-06-22T01:23:51;21.10;98.60
14122;DHT22;7139;48.114;11.442;2023-06-22T01:26:28;21.00;98.60
14122;DHT22;7139;48.114;11.442;2023-06-22T01:28:58;21.00;98.70
14122;DHT22;7139;48.114;11.442;2023-06-22T01:31:26;21.00;98.80
14122;DHT22;7139;48.114;11.442;2023-06-22T01:33:59;21.00;98.80
14122;DHT22;7139;48.114;11.442;2023-06-22T01:36:27;21.00;98.90
14122;DHT22;7139;48.114;11.442;2023-06-22T01:38:57;21.00;98.80
14122;DHT22;7139;48.114;11.442;2023-06-22T01:41:25;21.00;99.00
14122;DHT22;7139;48.114;11.442;2023-06-22T01:43:53;20.90;98.90
14122;DHT22;7139;48.114;11.442;2023-06-22T01:46:22;20.90;99.00
14122;DHT22;7139;48.114;11.442;2023-06-22T01:48:50;20.90;99.10
14122;DHT22;7139;48.114;11.442;2023-06-22T01:51:17;20.80;99.10
14122;DHT22;7139;48.114;11.442;2023-06-22T01:53:44;20.80;99.20
14122;DHT22;7139;48.114;11.442;2023-06-22T01:56:11;20.80;99.30
14122;DHT22;7139;48.114;11.442;2023-06-22T01:58:44;20.80;99.30
14122;DHT22;7139;48.114;11.442;2023-06-22T02:01:14;20.80;99.30
14122;DHT22;7139;48.114;11.442;2023-06-22T02:03:48;20.70;99.40
14122;DHT22;7139;48.114;11.442;2023-06-22T02:06:19;20.70;99.40
14122;DHT22;7139;48.114;11.442;2023-06-22T02:08:51;20.70;99.50
14122;DHT22;7139;48.114;11.442;2023-06-22T02:11:20;20.60;99.50
14122;DHT22;7139;48.114;11.442;2023-06-22T02:13:48;20.70;99.50
14122;DHT22;7139;48.114;11.442;2023-06-22T02:16:16;20.60;99.60
14122;DHT22;7139;48.114;11.442;2023-06-22T02:18:47;20.60;99.60
14122;DHT22;7139;48.114;11.442;2023-06-22T02:21:16;20.60;99.60
14122;DHT22;7139;48.114;11.442;2023-06-22T02:23:43;20.60;99.70
14122;DHT22;7139;48.114;11.442;2023-06-22T02:26:10;20.60;99.80
14122;DHT22;7139;48.114;11.442;2023-06-22T02:28:37;20.60;99.80
14122;DHT22;7139;48.114;11.442;2023-06-22T02:31:03;20.60;99.90
14122;DHT22;7139;48.114;11.442;2023-06-22T02:33:30;20.50;99.90
14122;DHT22;7139;48.114;11.442;2023-06-22T02:35:58;20.50;99.80
14122;DHT22;7139;48.114;11.442;2023-06-22T02:38:25;20.50;99.90
14122;DHT22;7139;48.114;11.442;2023-06-22T02:40:52;20.40;99.90
14122;DHT22;7139;48.114;11.442;2023-06-22T02:43:19;20.40;99.90
14122;DHT22;7139;48.114;11.442;2023-06-22T02:45:45;20.40;99.90
14122;DHT22;7139;48.114;11.442;2023-06-22T02:48:12;20.30;99.90
14122;DHT22;7139;48.114;11.442;2023-06-22T02:50:39;20.30;99.90
14122;DHT22;7139;48.114;11.442;2023-06-22T02:53:07;20.30;99.90
14122;DHT22;7139;48.114;11.442;2023-06-22T02:55:34;20.30;99.90
14122;DHT22;7139;48.114;11.442;2023-06-22T02:58:00;20.30;99.90
14122;DHT22;7139;48.114;11.442;2023-06-22T03:00:30;20.30;99.90
14122;DHT22;7139;48.114;11.442;2023-06-22T03:02:58;20.30;99.90
14122;DHT22;7139;48.114;11.442;2023-06-22T03:05:24;20.30;99.90
14122;DHT22;7139;48.114;11.442;2023-06-22T03:07:51;20.30;99.90
14122;DHT22;7139;48.114;11.442;2023-06-22T03:10:19;20.20;99.90
14122;DHT22;7139;48.114;11.442;2023-06-22T03:12:47;20.20;99.90
14122;DHT22;7139;48.114;11.442;2023-06-22T03:15:14;20.20;99.90
14122;DHT22;7139;48.114;11.442;2023-06-22T03:17:42;20.20;99.90
14122;DHT22;7139;48.114;11.442;2023-06-22T03:20:10;20.20;99.90
14122;DHT22;7139;48.114;11.442;2023-06-22T03:22:37;20.10;99.90
14122;DHT22;7139;48.114;11.442;2023-06-22T03:25:05;20.10;99.90
14122;DHT22;7139;48.114;11.442;2023-06-22T03:27:37;20.10;99.90
14122;DHT22;7139;48.114;11.442;2023-06-22T03:30:04;20.10;99.90
14122;DHT22;7139;48.114;11.442;2023-06-22T03:32:31;20.00;99.90
14122;DHT22;7139;48.114;11.442;2023-06-22T03:34:58;20.00;99.90
14122;DHT22;7139;48.114;11.442;2023-06-22T03:37:25;20.00;99.90
14122;DHT22;7139;48.114;11.442;2023-06-22T03:39:52;20.00;99.90
14122;DHT22;7139;48.114;11.442;2023-06-22T03:42:19;20.00;99.90
14122;DHT22;7139;48.114;11.442;2023-06-22T03:44:47;20.00;99.90
14122;DHT22;7139;48.114;11.442;2023-06-22T03:47:14;20.00;99.90
14122;DHT22;7139;48.114;11.442;2023-06-22T03:49:40;20.00;99.90
14122;DHT22;7139;48.114;11.442;2023-06-22T03:52:07;20.00;99.90
14122;DHT22;7139;48.114;11.442;2023-06-22T03:54:34;20.00;99.90
14122;DHT22;7139;48.114;11.442;2023-06-22T03:57:01;20.10;99.90
14122;DHT22;7139;48.114;11.442;2023-06-22T03:59:28;20.10;99.90
14122;DHT22;7139;48.114;11.442;2023-06-22T04:01:56;20.10;99.90
14122;DHT22;7139;48.114;11.442;2023-06-22T04:04:23;20.10;99.90
14122;DHT22;7139;48.114;11.442;2023-06-22T04:06:50;20.10;99.90
14122;DHT22;7139;48.114;11.442;2023-06-22T04:09:16;20.10;99.90
14122;DHT22;7139;48.114;11.442;2023-06-22T04:11:43;20.20;99.90
14122;DHT22;7139;48.114;11.442;2023-06-22T04:14:10;20.20;99.90
14122;DHT22;7139;48.114;11.442;2023-06-22T04:16:37;20.20;99.90
14122;DHT22;7139;48.114;11.442;2023-06-22T04:19:05;20.20;99.90
14122;DHT22;7139;48.114;11.442;2023-06-22T04:21:31;20.20;99.90
14122;DHT22;7139;48.114;11.442;2023-06-22T04:23:58;20.30;99.90
14122;DHT22;7139;48.114;11.442;2023-06-22T04:26:25;20.30;99.90
14122;DHT22;7139;48.114;11.442;2023-06-22T04:28:52;20.30;99.90
14122;DHT22;7139;48.114;11.442;2023-06-22T04:31:21;20.30;99.90
14122;DHT22;7139;48.114;11.442;2023-06-22T04:33:57;20.30;99.90
14122;DHT22;7139;48.114;11.442;2023-06-22T04:36:33;20.30;99.90
14122;DHT22;7139;48.114;11.442;2023-06-22T04:39:04;20.40;99.90
14122;DHT22;7139;48.114;11.442;2023-06-22T04:41:30;20.40;99.90
14122;DHT22;7139;48.114;11.442;2023-06-22T04:44:07;20.40;99.90
14122;DHT22;7139;48.114;11.442;2023-06-22T04:46:34;20.40;99.90
14122;DHT22;7139;48.114;11.442;2023-06-22T04:49:04;20.40;99.90
14122;DHT22;7139;48.114;11.442;2023-06-22T04:51:41;20.50;99.90
14122;DHT22;7139;48.114;11.442;2023-06-22T04:54:09;20.50;99.90
14122;DHT22;7139;48.114;11.442;2023-06-22T04:56:35;20.50;99.90
14122;DHT22;7139;48.114;11.442;2023-06-22T04:59:02;20.60;99.90
14122;DHT22;7139;48.114;11.442;2023-06-22T05:01:29;20.50;99.90
14122;DHT22;7139;48.114;11.442;2023-06-22T05:03:57;20.60;99.90
14122;DHT22;7139;48.114;11.442;2023-06-22T05:06:26;20.60;99.90
14122;DHT22;7139;48.114;11.442;2023-06-22T05:08:55;20.60;99.90
14122;DHT22;7139;48.114;11.442;2023-06-22T05:11:24;20.60;99.90
14122;DHT22;7139;48.114;11.442;2023-06-22T05:13:51;20.60;99.90
14122;DHT22;7139;48.114;11.442;2023-06-22T05:16:18;20.70;99.90
14122;DHT22;7139;48.114;11.442;2023-06-22T05:18:50;20.70;99.90
14122;DHT22;7139;48.114;11.442;2023-06-22T05:21:17;20.80;99.90
14122;DHT22;7139;48.114;11.442;2023-06-22T05:23:44;20.80;99.90
14122;DHT22;7139;48.114;11.442;2023-06-22T05:26:12;20.90;99.90
14122;DHT22;7139;48.114;11.442;2023-06-22T05:28:39;21.00;99.90
14122;DHT22;7139;48.114;11.442;2023-06-22T05:31:06;21.00;99.90
14122;DHT22;7139;48.114;11.442;2023-06-22T05:33:32;21.00;99.90
14122;DHT22;7139;48.114;11.442;2023-06-22T05:35:59;21.10;99.90
14122;DHT22;7139;48.114;11.442;2023-06-22T05:38:26;21.10;99.90
14122;DHT22;7139;48.114;11.442;2023-06-22T05:40:53;21.20;99.90
14122;DHT22;7139;48.114;11.442;2023-06-22T05:43:21;21.20;99.90
14122;DHT22;7139;48.114;11.442;2023-06-22T05:45:48;21.20;99.90
14122;DHT22;7139;48.114;11.442;2023-06-22T05:48:15;21.30;99.90
14122;DHT22;7139;48.114;11.442;2023-06-22T05:50:42;21.30;99.90
14122;DHT22;7139;48.114;11.442;2023-06-22T05:53:08;21.30;99.90
14122;DHT22;7139;48.114;11.442;2023-06-22T05:55:35;21.40;99.90
14122;DHT22;7139;48.114;11.442;2023-06-22T05:58:02;21.50;99.90
14122;DHT22;7139;48.114;11.442;2023-06-22T06:00:31;21.50;99.90
14122;DHT22;7139;48.114;11.442;2023-06-22T06:02:58;21.60;99.90
14122;DHT22;7139;48.114;11.442;2023-06-22T06:05:28;21.60;99.90
14122;DHT22;7139;48.114;11.442;2023-06-22T06:07:55;21.70;99.90
14122;DHT22;7139;48.114;11.442;2023-06-22T06:10:22;21.80;99.90
14122;DHT22;7139;48.114;11.442;2023-06-22T06:12:49;21.90;99.90
14122;DHT22;7139;48.114;11.442;2023-06-22T06:15:16;21.90;99.90
14122;DHT22;7139;48.114;11.442;2023-06-22T06:17:48;22.00;99.90
14122;DHT22;7139;48.114;11.442;2023-06-22T06:20:15;22.00;99.90
14122;DHT22;7139;48.114;11.442;2023-06-22T06:22:42;22.10;99.90
14122;DHT22;7139;48.114;11.442;2023-06-22T06:25:09;22.10;99.90
14122;DHT22;7139;48.114;11.442;2023-06-22T06:27:41;22.20;99.90
14122;DHT22;7139;48.114;11.442;2023-06-22T06:30:09;22.30;99.90
14122;DHT22;7139;48.114;11.442;2023-06-22T06:32:36;22.30;99.90
14122;DHT22;7139;48.114;11.442;2023-06-22T06:35:05;22.40;99.90
14122;DHT22;7139;48.114;11.442;2023-06-22T06:37:35;22.50;99.90
14122;DHT22;7139;48.114;11.442;2023-06-22T06:40:02;22.50;99.90
14122;DHT22;7139;48.114;11.442;2023-06-22T06:42:30;22.60;99.90
14122;DHT22;7139;48.114;11.442;2023-06-22T06:44:57;22.70;99.90
14122;DHT22;7139;48.114;11.442;2023-06-22T06:47:24;22.80;99.90
14122;DHT22;7139;48.114;11.442;2023-06-22T06:50:12;22.90;99.90
14122;DHT22;7139;48.114;11.442;2023-06-22T06:52:39;22.90;99.90
14122;DHT22;7139;48.114;11.442;2023-06-22T06:55:08;23.00;99.90
14122;DHT22;7139;48.114;11.442;2023-06-22T06:57:37;23.10;99.90
14122;DHT22;7139;48.114;11.442;2023-06-22T07:00:05;23.20;99.90
14122;DHT22;7139;48.114;11.442;2023-06-22T07:02:37;23.30;99.90
14122;DHT22;7139;48.114;11.442;2023-06-22T07:05:04;23.40;99.70
14122;DHT22;7139;48.114;11.442;2023-06-22T07:07:33;23.50;99.70
14122;DHT22;7139;48.114;11.442;2023-06-22T07:10:00;23.60;99.40
14122;DHT22;7139;48.114;11.442;2023-06-22T07:12:26;23.70;99.10
14122;DHT22;7139;48.114;11.442;2023-06-22T07:14:53;23.80;98.80
14122;DHT22;7139;48.114;11.442;2023-06-22T07:17:20;23.90;98.50
14122;DHT22;7139;48.114;11.442;2023-06-22T07:19:47;24.00;98.10
14122;DHT22;7139;48.114;11.442;2023-06-22T07:22:13;24.10;97.90
14122;DHT22;7139;48.114;11.442;2023-06-22T07:24:42;24.20;97.80
14122;DHT22;7139;48.114;11.442;2023-06-22T07:27:08;24.30;97.50
14122;DHT22;7139;48.114;11.442;2023-06-22T07:29:36;24.50;97.50
14122;DHT22;7139;48.114;11.442;2023-06-22T07:32:05;24.60;97.30
14122;DHT22;7139;48.114;11.442;2023-06-22T07:34:32;24.70;96.70
14122;DHT22;7139;48.114;11.442;2023-06-22T07:36:59;24.80;96.30
14122;DHT22;7139;48.114;11.442;2023-06-22T07:39:26;24.90;96.30
14122;DHT22;7139;48.114;11.442;2023-06-22T07:41:55;25.00;96.20
14122;DHT22;7139;48.114;11.442;2023-06-22T07:44:22;25.10;95.70
14122;DHT22;7139;48.114;11.442;2023-06-22T07:46:48;25.30;95.70
14122;DHT22;7139;48.114;11.442;2023-06-22T07:49:17;25.40;95.20
14122;DHT22;7139;48.114;11.442;2023-06-22T07:51:44;25.60;95.20
14122;DHT22;7139;48.114;11.442;2023-06-22T07:54:10;25.70;94.90
14122;DHT22;7139;48.114;11.442;2023-06-22T07:56:37;25.90;94.90
14122;DHT22;7139;48.114;11.442;2023-06-22T07:59:05;26.00;94.60
14122;DHT22;7139;48.114;11.442;2023-06-22T08:01:32;26.10;94.10
14122;DHT22;7139;48.114;11.442;2023-06-22T08:03:59;26.30;94.50
14122;DHT22;7139;48.114;11.442;2023-06-22T08:06:25;26.30;93.90
14122;DHT22;7139;48.114;11.442;2023-06-22T08:08:52;26.40;93.50
14122;DHT22;7139;48.114;11.442;2023-06-22T08:11:20;26.40;93.40
14122;DHT22;7139;48.114;11.442;2023-06-22T08:13:47;26.40;93.30
14122;DHT22;7139;48.114;11.442;2023-06-22T08:16:16;26.60;93.20
14122;DHT22;7139;48.114;11.442;2023-06-22T08:18:42;26.70;92.90
14122;DHT22;7139;48.114;11.442;2023-06-22T08:21:16;26.90;92.70
14122;DHT22;7139;48.114;11.442;2023-06-22T08:23:43;27.10;92.60
14122;DHT22;7139;48.114;11.442;2023-06-22T08:26:10;27.20;92.20
14122;DHT22;7139;48.114;11.442;2023-06-22T08:28:37;27.40;92.00
14122;DHT22;7139;48.114;11.442;2023-06-22T08:31:04;27.50;91.90
14122;DHT22;7139;48.114;11.442;2023-06-22T08:33:32;27.50;91.40
14122;DHT22;7139;48.114;11.442;2023-06-22T08:35:59;27.50;91.00
14122;DHT22;7139;48.114;11.442;2023-06-22T08:38:26;27.40;91.20
14122;DHT22;7139;48.114;11.442;2023-06-22T08:40:53;27.40;91.30
14122;DHT22;7139;48.114;11.442;2023-06-22T08:43:19;27.50;91.20
14122;DHT22;7139;48.114;11.442;2023-06-22T08:45:46;27.50;92.00
14122;DHT22;7139;48.114;11.442;2023-06-22T08:48:13;27.50;91.80
14122;DHT22;7139;48.114;11.442;2023-06-22T08:50:41;27.60;91.90
14122;DHT22;7139;48.114;11.442;2023-06-22T08:53:08;27.70;91.60
14122;DHT22;7139;48.114;11.442;2023-06-22T08:55:35;27.80;91.30
14122;DHT22;7139;48.114;11.442;2023-06-22T08:58:01;27.90;91.20
14122;DHT22;7139;48.114;11.442;2023-06-22T09:00:29;28.10;91.10
14122;DHT22;7139;48.114;11.442;2023-06-22T09:02:58;28.30;90.30
14122;DHT22;7139;48.114;11.442;2023-06-22T09:05:25;28.50;90.10
14122;DHT22;7139;48.114;11.442;2023-06-22T09:07:53;28.60;90.70
14122;DHT22;7139;48.114;11.442;2023-06-22T09:10:21;28.70;90.00
14122;DHT22;7139;48.114;11.442;2023-06-22T09:12:48;28.80;90.20
14122;DHT22;7139;48.114;11.442;2023-06-22T09:15:14;28.80;89.70
14122;DHT22;7139;48.114;11.442;2023-06-22T09:17:41;28.90;90.00
14122;DHT22;7139;48.114;11.442;2023-06-22T09:20:09;28.90;89.80
14122;DHT22;7139;48.114;11.442;2023-06-22T09:22:36;28.90;87.80
14122;DHT22;7139;48.114;11.442;2023-06-22T09:25:05;29.00;88.80
14122;DHT22;7139;48.114;11.442;2023-06-22T09:27:33;29.10;88.80
14122;DHT22;7139;48.114;11.442;2023-06-22T09:29:59;29.20;87.40
14122;DHT22;7139;48.114;11.442;2023-06-22T09:32:26;29.30;88.00
14122;DHT22;7139;48.114;11.442;2023-06-22T09:34:53;29.50;87.50
14122;DHT22;7139;48.114;11.442;2023-06-22T09:37:20;29.50;87.40
14122;DHT22;7139;48.114;11.442;2023-06-22T09:39:46;29.60;87.70
14122;DHT22;7139;48.114;11.442;2023-06-22T09:42:14;29.70;86.00
14122;DHT22;7139;48.114;11.442;2023-06-22T09:44:41;29.80;86.50
14122;DHT22;7139;48.114;11.442;2023-06-22T09:47:08;30.00;86.20
14122;DHT22;7139;48.114;11.442;2023-06-22T09:49:35;30.10;83.90
14122;DHT22;7139;48.114;11.442;2023-06-22T09:52:02;30.30;83.70
14122;DHT22;7139;48.114;11.442;2023-06-22T09:54:28;30.40;83.30
14122;DHT22;7139;48.114;11.442;2023-06-22T09:56:55;30.40;83.70
14122;DHT22;7139;48.114;11.442;2023-06-22T09:59:23;30.50;83.40
14122;DHT22;7139;48.114;11.442;2023-06-22T10:01:50;30.60;82.70
14122;DHT22;7139;48.114;11.442;2023-06-22T10:04:17;30.80;83.00
14122;DHT22;7139;48.114;11.442;2023-06-22T10:06:43;31.00;82.20
14122;DHT22;7139;48.114;11.442;2023-06-22T10:09:11;31.20;81.80
14122;DHT22;7139;48.114;11.442;2023-06-22T10:11:38;31.30;79.60
14122;DHT22;7139;48.114;11.442;2023-06-22T10:14:05;31.40;79.60
14122;DHT22;7139;48.114;11.442;2023-06-22T10:16:33;31.50;79.40
14122;DHT22;7139;48.114;11.442;2023-06-22T10:19:01;31.70;79.30
14122;DHT22;7139;48.114;11.442;2023-06-22T10:21:28;31.80;77.40
14122;DHT22;7139;48.114;11.442;2023-06-22T10:23:54;31.90;77.10
14122;DHT22;7139;48.114;11.442;2023-06-22T10:26:21;32.00;76.70
14122;DHT22;7139;48.114;11.442;2023-06-22T10:28:48;32.10;77.50
14122;DHT22;7139;48.114;11.442;2023-06-22T10:31:15;32.20;77.70
14122;DHT22;7139;48.114;11.442;2023-06-22T10:33:43;32.30;77.70
14122;DHT22;7139;48.114;11.442;2023-06-22T10:36:10;32.50;75.50
14122;DHT22;7139;48.114;11.442;2023-06-22T10:38:37;32.60;75.90
14122;DHT22;7139;48.114;11.442;2023-06-22T10:41:04;32.70;76.20
14122;DHT22;7139;48.114;11.442;2023-06-22T10:43:31;32.90;74.10
14122;DHT22;7139;48.114;11.442;2023-06-22T10:45:57;33.00;72.90
14122;DHT22;7139;48.114;11.442;2023-06-22T10:48:24;33.00;72.60
14122;DHT22;7139;48.114;11.442;2023-06-22T10:50:52;33.10;72.00
14122;DHT22;7139;48.114;11.442;2023-06-22T10:53:20;33.30;74.00
14122;DHT22;7139;48.114;11.442;2023-06-22T10:55:46;33.50;72.50
14122;DHT22;7139;48.114;11.442;2023-06-22T10:58:13;33.50;71.20
14122;DHT22;7139;48.114;11.442;2023-06-22T11:00:40;33.20;71.10
14122;DHT22;7139;48.114;11.442;2023-06-22T11:03:07;33.00;72.60
14122;DHT22;7139;48.114;11.442;2023-06-22T11:05:33;32.70;72.00
14122;DHT22;7139;48.114;11.442;2023-06-22T11:08:01;32.60;73.80
14122;DHT22;7139;48.114;11.442;2023-06-22T11:10:28;32.50;75.40
14122;DHT22;7139;48.114;11.442;2023-06-22T11:12:55;32.50;75.10
14122;DHT22;7139;48.114;11.442;2023-06-22T11:15:23;32.50;76.10
14122;DHT22;7139;48.114;11.442;2023-06-22T11:17:50;32.50;76.80
14122;DHT22;7139;48.114;11.442;2023-06-22T11:20:17;32.50;75.80
14122;DHT22;7139;48.114;11.442;2023-06-22T11:22:43;32.60;76.50
14122;DHT22;7139;48.114;11.442;2023-06-22T11:25:11;32.80;74.90
14122;DHT22;7139;48.114;11.442;2023-06-22T11:27:38;33.00;75.80
14122;DHT22;7139;48.114;11.442;2023-06-22T11:30:06;33.20;75.40
14122;DHT22;7139;48.114;11.442;2023-06-22T11:32:34;33.40;73.70
14122;DHT22;7139;48.114;11.442;2023-06-22T11:35:00;33.50;74.50
14122;DHT22;7139;48.114;11.442;2023-06-22T11:37:27;33.60;71.70
14122;DHT22;7139;48.114;11.442;2023-06-22T11:39:54;33.80;73.20
14122;DHT22;7139;48.114;11.442;2023-06-22T11:42:22;33.90;70.80
14122;DHT22;7139;48.114;11.442;2023-06-22T11:44:50;34.00;70.20
14122;DHT22;7139;48.114;11.442;2023-06-22T11:47:17;34.00;71.80
14122;DHT22;7139;48.114;11.442;2023-06-22T11:49:44;34.20;70.80
14122;DHT22;7139;48.114;11.442;2023-06-22T11:52:10;34.30;71.90
14122;DHT22;7139;48.114;11.442;2023-06-22T11:54:37;34.50;71.60
14122;DHT22;7139;48.114;11.442;2023-06-22T11:57:04;34.50;71.00
14122;DHT22;7139;48.114;11.442;2023-06-22T11:59:33;34.60;68.80
14122;DHT22;7139;48.114;11.442;2023-06-22T12:01:59;34.60;69.30
14122;DHT22;7139;48.114;11.442;2023-06-22T12:04:26;34.60;69.40
14122;DHT22;7139;48.114;11.442;2023-06-22T12:06:53;34.50;69.00
14122;DHT22;7139;48.114;11.442;2023-06-22T12:09:19;34.50;69.70
14122;DHT22;7139;48.114;11.442;2023-06-22T12:11:46;34.50;69.20
14122;DHT22;7139;48.114;11.442;2023-06-22T12:14:13;34.60;68.90
14122;DHT22;7139;48.114;11.442;2023-06-22T12:16:41;34.60;69.80
14122;DHT22;7139;48.114;11.442;2023-06-22T12:19:09;34.60;68.60
14122;DHT22;7139;48.114;11.442;2023-06-22T12:21:37;34.60;68.60
14122;DHT22;7139;48.114;11.442;2023-06-22T12:24:04;34.60;69.60
14122;DHT22;7139;48.114;11.442;2023-06-22T12:26:31;34.60;69.20
14122;DHT22;7139;48.114;11.442;2023-06-22T12:28:58;34.50;69.80
14122;DHT22;7139;48.114;11.442;2023-06-22T12:31:25;34.50;69.10
14122;DHT22;7139;48.114;11.442;2023-06-22T12:33:53;34.60;70.00
14122;DHT22;7139;48.114;11.442;2023-06-22T12:36:19;34.60;68.30
14122;DHT22;7139;48.114;11.442;2023-06-22T12:38:46;34.60;67.60
14122;DHT22;7139;48.114;11.442;2023-06-22T12:41:13;34.50;68.50
14122;DHT22;7139;48.114;11.442;2023-06-22T12:43:40;34.50;68.60
14122;DHT22;7139;48.114;11.442;2023-06-22T12:46:07;34.30;68.20
14122;DHT22;7139;48.114;11.442;2023-06-22T12:48:33;34.20;68.60
14122;DHT22;7139;48.114;11.442;2023-06-22T12:51:08;34.30;68.70
14122;DHT22;7139;48.114;11.442;2023-06-22T12:53:35;34.20;69.10
14122;DHT22;7139;48.114;11.442;2023-06-22T12:56:01;34.20;68.50
14122;DHT22;7139;48.114;11.442;2023-06-22T12:58:28;34.10;70.30
14122;DHT22;7139;48.114;11.442;2023-06-22T13:00:55;33.90;68.80
14122;DHT22;7139;48.114;11.442;2023-06-22T13:03:22;33.90;70.00
14122;DHT22;7139;48.114;11.442;2023-06-22T13:05:50;34.00;69.80
14122;DHT22;7139;48.114;11.442;2023-06-22T13:08:18;34.10;69.60
14122;DHT22;7139;48.114;11.442;2023-06-22T13:10:45;34.20;69.20
14122;DHT22;7139;48.114;11.442;2023-06-22T13:13:12;34.30;69.10
14122;DHT22;7139;48.114;11.442;2023-06-22T13:15:38;34.40;68.70
14122;DHT22;7139;48.114;11.442;2023-06-22T13:18:05;34.50;68.30
14122;DHT22;7139;48.114;11.442;2023-06-22T13:20:32;34.60;68.50
14122;DHT22;7139;48.114;11.442;2023-06-22T13:22:58;34.70;68.80
14122;DHT22;7139;48.114;11.442;2023-06-22T13:25:26;34.80;67.90
14122;DHT22;7139;48.114;11.442;2023-06-22T13:27:53;34.90;67.70
14122;DHT22;7139;48.114;11.442;2023-06-22T13:30:20;34.90;68.50
14122;DHT22;7139;48.114;11.442;2023-06-22T13:32:47;35.00;68.00
14122;DHT22;7139;48.114;11.442;2023-06-22T13:35:13;34.90;66.10
14122;DHT22;7139;48.114;11.442;2023-06-22T13:37:40;34.90;67.40
14122;DHT22;7139;48.114;11.442;2023-06-22T13:40:08;35.00;67.20
14122;DHT22;7139;48.114;11.442;2023-06-22T13:42:36;35.00;67.40
14122;DHT22;7139;48.114;11.442;2023-06-22T13:45:03;35.10;68.50
14122;DHT22;7139;48.114;11.442;2023-06-22T13:47:30;35.10;67.00
14122;DHT22;7139;48.114;11.442;2023-06-22T13:49:57;35.10;64.90
14122;DHT22;7139;48.114;11.442;2023-06-22T13:52:24;35.10;64.20
14122;DHT22;7139;48.114;11.442;2023-06-22T13:54:50;35.00;64.00
14122;DHT22;7139;48.114;11.442;2023-06-22T13:57:17;35.10;65.50
14122;DHT22;7139;48.114;11.442;2023-06-22T13:59:45;35.10;66.80
14122;DHT22;7139;48.114;11.442;2023-06-22T14:02:12;35.10;64.00
14122;DHT22;7139;48.114;11.442;2023-06-22T14:04:39;35.10;64.60
14122;DHT22;7139;48.114;11.442;2023-06-22T14:07:06;35.20;64.10
14122;DHT22;7139;48.114;11.442;2023-06-22T14:09:32;35.20;64.10
14122;DHT22;7139;48.114;11.442;2023-06-22T14:12:03;35.20;66.40
14122;DHT22;7139;48.114;11.442;2023-06-22T14:14:30;35.20;66.30
14122;DHT22;7139;48.114;11.442;2023-06-22T14:16:58;35.20;65.10
14122;DHT22;7139;48.114;11.442;2023-06-22T14:19:25;35.20;65.60
14122;DHT22;7139;48.114;11.442;2023-06-22T14:21:51;35.10;65.30
14122;DHT22;7139;48.114;11.442;2023-06-22T14:24:18;35.10;65.50
14122;DHT22;7139;48.114;11.442;2023-06-22T14:26:45;35.10;65.50
14122;DHT22;7139;48.114;11.442;2023-06-22T14:29:11;35.10;65.90
14122;DHT22;7139;48.114;11.442;2023-06-22T14:31:38;35.10;65.50
14122;DHT22;7139;48.114;11.442;2023-06-22T14:34:06;35.10;64.50
14122;DHT22;7139;48.114;11.442;2023-06-22T14:36:33;35.10;65.70
14122;DHT22;7139;48.114;11.442;2023-06-22T14:39:00;35.10;62.60
14122;DHT22;7139;48.114;11.442;2023-06-22T14:41:27;35.00;62.60
14122;DHT22;7139;48.114;11.442;2023-06-22T14:43:54;34.90;61.60
14122;DHT22;7139;48.114;11.442;2023-06-22T14:46:21;34.90;61.20
14122;DHT22;7139;48.114;11.442;2023-06-22T14:48:48;34.90;62.40
14122;DHT22;7139;48.114;11.442;2023-06-22T14:51:16;34.90;63.20
14122;DHT22;7139;48.114;11.442;2023-06-22T14:53:44;34.90;62.20
14122;DHT22;7139;48.114;11.442;2023-06-22T14:56:12;34.90;63.10
14122;DHT22;7139;48.114;11.442;2023-06-22T14:58:41;34.80;61.20
14122;DHT22;7139;48.114;11.442;2023-06-22T15:01:10;34.80;62.40
14122;DHT22;7139;48.114;11.442;2023-06-22T15:03:37;34.80;60.60
14122;DHT22;7139;48.114;11.442;2023-06-22T15:06:04;34.80;59.90
14122;DHT22;7139;48.114;11.442;2023-06-22T15:08:33;34.80;60.00
14122;DHT22;7139;48.114;11.442;2023-06-22T15:11:00;34.80;59.30
14122;DHT22;7139;48.114;11.442;2023-06-22T15:13:27;34.80;58.90
14122;DHT22;7139;48.114;11.442;2023-06-22T15:15:55;34.60;58.90
14122;DHT22;7139;48.114;11.442;2023-06-22T15:18:22;34.40;58.40
14122;DHT22;7139;48.114;11.442;2023-06-22T15:20:58;34.10;58.70
14122;DHT22;7139;48.114;11.442;2023-06-22T15:23:26;33.90;59.90
14122;DHT22;7139;48.114;11.442;2023-06-22T15:25:55;33.70;59.60
14122;DHT22;7139;48.114;11.442;2023-06-22T15:28:22;33.50;61.40
14122;DHT22;7139;48.114;11.442;2023-06-22T15:30:49;33.40;61.40
14122;DHT22;7139;48.114;11.442;2023-06-22T15:33:17;33.40;61.10